首页
METAR-TAF:

METAR-TAF

机场 :

North Platte, 內布拉斯加州, 美国

纬度: 41-07-19N, 经度: 100-40-06W, 海拔: 846米

当前天气观测

该预报发布于1小时和8分钟前的21:53 UTC
风速8节,风向东转东北
温度 34°C
湿度 32%
气压 1013 hPa
能見度: 16.1公里
天空无云

METAR: KLBF 152153Z AUTO 07008KT 10SM CLR 34/15 A2992 RMK AO2 SLP100 T03440150

时间: 18:01 (23:01 UTC)

预报

该预报发布于5小时和32分钟前的17:29 UTC
预报有效从15日的 18点(UTC)到 16日的 18点(UTC)
风速11节,风向
能見度: 10公里
散云层高于25000英尺
从 15日的 2200点(UTC)
风速13节,风向东北
能見度: 10公里
少量云层高于25000英尺
从 16日的 0400点(UTC)
风速5节,风向东北
能見度: 10公里
多云层高于20000英尺
从 16日的 1200点(UTC)
风速6节,风向西
能見度: 10公里
散云层高于25000英尺

TAF: KLBF 151729Z 1518/1618 01011KT P6SM SCT250 FM152200 04013KT P6SM FEW250 FM160400 04005KT P6SM BKN200 FM161200 26006KT P6SM SCT250

超过4000个机场的气象观测和天气预报(METAR&TAF报告)。

可查询的气象台以黄色和红色小点在地图上表示。

将鼠标移到小点上方,可查看气象台名称。

然后点击查看天气观测和预报。

如需切换地图:点击带黑十字的绿色按钮放大地图;点击带横线的绿色按钮缩小地图;或者点击绿色箭头查看邻近地区的地图。


METAR-TAF: